createdAt,value
2019-04-22T00:00:49.314Z,4.17
2019-04-22T00:01:58.181Z,4.50
2019-04-22T00:03:05.155Z,4.35
2019-04-22T00:04:15.574Z,4.60
2019-04-22T00:05:34.422Z,4.17
2019-04-22T00:06:44.269Z,4.47
2019-04-22T00:07:56.333Z,4.03
2019-04-22T00:09:04.123Z,4.00
2019-04-22T00:10:12.051Z,4.75
2019-04-22T00:11:26.030Z,4.15
2019-04-22T00:12:32.728Z,4.70
2019-04-22T00:13:40.807Z,4.00
2019-04-22T00:14:38.890Z,3.70
2019-04-22T00:15:42.182Z,4.25
2019-04-22T00:18:07.412Z,4.15
2019-04-22T00:19:15.217Z,3.80
2019-04-22T00:20:18.824Z,3.85
2019-04-22T00:21:25.979Z,4.55
2019-04-22T00:22:29.167Z,4.20
2019-04-22T00:23:31.722Z,4.40
2019-04-22T00:24:44.801Z,4.33
2019-04-22T00:25:57.340Z,4.15
2019-04-22T00:26:57.381Z,3.95
2019-04-22T00:28:02.437Z,4.05
2019-04-22T00:29:36.044Z,3.92
2019-04-22T00:31:28.600Z,4.05
2019-04-22T00:32:58.961Z,3.62
2019-04-22T00:34:06.716Z,3.72
2019-04-22T00:35:11.337Z,3.42
2019-04-22T00:36:23.653Z,3.90
2019-04-22T00:37:28.631Z,3.60
2019-04-22T00:38:42.075Z,4.12
2019-04-22T00:39:40.907Z,3.45
2019-04-22T00:42:00.091Z,3.85
2019-04-22T00:42:58.326Z,3.60
2019-04-22T00:44:15.695Z,3.58
2019-04-22T00:45:24.792Z,3.95
2019-04-22T00:46:27.599Z,3.70
2019-04-22T00:47:32.379Z,3.45
2019-04-22T00:48:43.082Z,3.83
2019-04-22T00:50:14.595Z,3.75
2019-04-22T00:51:01.369Z,3.90
2019-04-22T00:52:12.432Z,3.83
2019-04-22T00:53:10.331Z,4.00
2019-04-22T00:54:13.635Z,3.60
2019-04-22T00:55:29.275Z,3.77
2019-04-22T00:56:31.087Z,4.10
2019-04-22T00:57:38.936Z,4.05
2019-04-22T00:59:52.031Z,3.85
2019-04-22T01:01:04.666Z,3.70
2019-04-22T01:02:07.499Z,4.20
2019-04-22T01:03:21.497Z,4.58
2019-04-22T01:04:27.443Z,3.80
2019-04-22T01:05:30.533Z,4.35
2019-04-22T01:06:32.994Z,3.30
2019-04-22T01:07:37.483Z,4.22
2019-04-22T01:08:53.277Z,3.90
2019-04-22T01:10:03.440Z,3.50
2019-04-22T01:11:04.732Z,4.70
2019-04-22T01:12:12.353Z,4.47
2019-04-22T01:13:16.711Z,3.42
2019-04-22T01:14:25.028Z,4.10
2019-04-22T01:15:30.334Z,4.60
2019-04-22T01:16:37.174Z,4.05
2019-04-22T01:17:41.745Z,4.65
2019-04-22T01:18:48.762Z,4.08
2019-04-22T01:19:56.255Z,4.78
2019-04-22T01:22:13.685Z,4.47
2019-04-22T01:23:16.281Z,4.75
2019-04-22T01:24:24.820Z,4.72
2019-04-22T01:25:30.564Z,4.30
2019-04-22T01:26:34.553Z,4.67
2019-04-22T01:27:41.829Z,4.35
2019-04-22T01:28:46.064Z,4.40
2019-04-22T01:29:54.294Z,3.75
2019-04-22T01:31:00.108Z,4.55
2019-04-22T01:32:00.422Z,4.33
2019-04-22T01:33:17.338Z,4.45
2019-04-22T01:34:28.855Z,4.78
2019-04-22T01:35:36.943Z,4.50
2019-04-22T01:36:48.352Z,4.40
2019-04-22T01:37:54.619Z,4.67
2019-04-22T01:39:03.877Z,4.65
2019-04-22T01:40:19.525Z,4.53
2019-04-22T01:41:23.584Z,4.95
2019-04-22T01:42:35.876Z,4.53
2019-04-22T01:43:50.428Z,5.00
2019-04-22T01:44:45.325Z,4.90
2019-04-22T01:45:54.383Z,5.40
2019-04-22T01:47:00.225Z,4.40
2019-04-22T01:48:02.949Z,4.95
2019-04-22T01:49:19.223Z,5.15
2019-04-22T01:50:23.926Z,4.40
2019-04-22T01:51:43.842Z,4.37
2019-04-22T01:52:55.675Z,5.15
2019-04-22T01:53:43.421Z,3.67
2019-04-22T01:54:48.425Z,3.70
2019-04-22T01:55:59.025Z,3.47
2019-04-22T01:56:57.130Z,3.62
2019-04-22T01:58:08.204Z,3.60
2019-04-22T01:59:09.817Z,3.30
2019-04-22T02:00:16.430Z,4.55
2019-04-22T02:01:35.836Z,3.00
2019-04-22T02:02:39.967Z,4.10
2019-04-22T02:03:52.758Z,3.95
2019-04-22T02:04:53.208Z,4.30
2019-04-22T02:06:00.204Z,4.47
2019-04-22T02:08:17.501Z,4.40
2019-04-22T02:09:22.477Z,4.60
2019-04-22T02:10:28.784Z,4.90
2019-04-22T02:11:39.012Z,4.42
2019-04-22T02:12:42.872Z,4.55
2019-04-22T02:13:49.809Z,4.30
2019-04-22T02:14:50.862Z,4.15
2019-04-22T02:16:01.623Z,4.42
2019-04-22T02:17:14.113Z,3.70
2019-04-22T02:18:18.072Z,4.30
2019-04-22T02:19:22.804Z,4.03
2019-04-22T02:20:25.141Z,4.42
2019-04-22T02:21:38.502Z,3.90
2019-04-22T02:23:30.272Z,4.20
2019-04-22T02:24:26.369Z,4.12
2019-04-22T02:25:32.340Z,4.05
2019-04-22T02:26:35.475Z,4.58
2019-04-22T02:27:52.021Z,4.67
2019-04-22T02:29:03.638Z,3.72
2019-04-22T02:29:52.370Z,4.30
2019-04-22T02:31:20.684Z,4.72
2019-04-22T02:32:19.582Z,4.60
2019-04-22T02:35:48.621Z,5.08
2019-04-22T02:37:45.969Z,5.28
2019-04-22T02:40:03.698Z,4.95
2019-04-22T02:43:34.257Z,4.47
2019-04-22T02:44:30.775Z,4.70
2019-04-22T02:45:52.580Z,4.90
2019-04-22T02:46:58.933Z,4.28
2019-04-22T02:48:10.815Z,5.00
2019-04-22T02:49:04.185Z,4.55
2019-04-22T02:51:26.227Z,4.83
2019-04-22T02:52:26.186Z,5.47
2019-04-22T02:53:46.521Z,4.45
2019-04-22T02:55:46.037Z,4.50
2019-04-22T02:57:03.387Z,4.90
2019-04-22T02:57:55.120Z,5.20
2019-04-22T02:59:12.410Z,5.05
2019-04-22T03:00:19.461Z,5.15
2019-04-22T03:01:25.652Z,5.45
2019-04-22T03:02:28.667Z,4.80
2019-04-22T03:04:32.696Z,5.17
2019-04-22T03:06:05.751Z,4.75
2019-04-22T03:08:06.709Z,4.80
2019-04-22T03:09:12.650Z,5.28
2019-04-22T03:10:09.065Z,5.40
2019-04-22T03:11:22.231Z,5.20
2019-04-22T03:13:38.266Z,5.78
2019-04-22T03:14:55.504Z,5.17
2019-04-22T03:15:53.210Z,5.22
2019-04-22T03:18:03.003Z,5.67
2019-04-22T03:21:18.319Z,4.72
2019-04-22T03:22:26.482Z,5.40
2019-04-22T03:23:55.861Z,5.37
2019-04-22T03:27:54.189Z,4.50
2019-04-22T03:29:04.639Z,5.55
2019-04-22T03:33:10.989Z,5.10
2019-04-22T03:35:09.871Z,5.15
2019-04-22T03:36:57.770Z,4.90
2019-04-22T03:37:32.393Z,4.75
2019-04-22T03:38:55.256Z,4.58
2019-04-22T03:42:05.650Z,4.83
2019-04-22T03:44:27.030Z,4.45
2019-04-22T03:45:26.599Z,4.67
2019-04-22T03:46:30.314Z,5.03
2019-04-22T03:48:46.754Z,4.50
2019-04-22T03:50:09.426Z,5.30
2019-04-22T03:50:42.933Z,4.95
2019-04-22T03:53:09.772Z,4.70
2019-04-22T03:54:29.166Z,4.70
2019-04-22T03:56:56.119Z,4.60
2019-04-22T03:58:53.580Z,5.17
2019-04-22T03:59:54.076Z,5.30
2019-04-22T04:00:57.071Z,5.62
2019-04-22T04:02:02.313Z,5.20
2019-04-22T04:05:33.137Z,5.45
2019-04-22T04:06:29.840Z,5.42
2019-04-22T04:09:54.003Z,5.40
2019-04-22T04:12:03.872Z,5.60
2019-04-22T04:13:08.512Z,5.00
2019-04-22T04:17:51.466Z,5.40
2019-04-22T04:18:56.199Z,5.55
2019-04-22T04:20:10.810Z,5.30
2019-04-22T04:21:14.576Z,5.30
2019-04-22T04:22:19.459Z,5.12
2019-04-22T04:24:34.967Z,6.05
2019-04-22T04:25:37.404Z,5.65
2019-04-22T04:27:54.159Z,4.53
2019-04-22T04:30:14.356Z,5.62
2019-04-22T04:31:00.305Z,6.20
2019-04-22T04:32:18.867Z,5.78
2019-04-22T04:33:18.085Z,6.10
2019-04-22T04:34:28.499Z,5.67
2019-04-22T04:35:32.876Z,5.83
2019-04-22T04:36:47.975Z,4.72
2019-04-22T04:39:00.474Z,6.37
2019-04-22T04:40:10.151Z,5.33
2019-04-22T04:41:00.257Z,6.22
2019-04-22T04:42:15.459Z,5.28
2019-04-22T04:45:40.905Z,4.50
2019-04-22T04:47:47.818Z,4.83
2019-04-22T04:50:00.227Z,5.58
2019-04-22T04:52:19.364Z,5.03
2019-04-22T04:53:20.966Z,5.10
2019-04-22T04:54:37.626Z,5.03
2019-04-22T04:56:44.536Z,3.80
2019-04-22T05:01:07.162Z,4.85
2019-04-22T05:02:24.080Z,5.60
2019-04-22T05:03:20.605Z,5.90
2019-04-22T05:06:45.083Z,5.15
2019-04-22T05:10:03.875Z,4.92
2019-04-22T05:11:05.551Z,5.30
2019-04-22T05:12:27.503Z,4.85
2019-04-22T05:13:26.209Z,4.55
2019-04-22T05:16:42.841Z,4.67
2019-04-22T05:17:43.342Z,4.50
2019-04-22T05:18:53.104Z,4.85
2019-04-22T05:19:56.710Z,5.00
2019-04-22T05:22:13.401Z,4.83
2019-04-22T05:23:16.678Z,5.03
2019-04-22T05:24:22.756Z,4.50
2019-04-22T05:26:40.001Z,4.55
2019-04-22T05:28:50.083Z,4.75
2019-04-22T05:31:01.606Z,4.85
2019-04-22T05:32:14.042Z,5.00
2019-04-22T05:33:19.043Z,5.15
2019-04-22T05:34:21.590Z,4.37
2019-04-22T05:36:38.078Z,5.08
2019-04-22T05:37:45.832Z,4.60
2019-04-22T05:38:53.725Z,4.85
2019-04-22T05:40:06.559Z,4.75
2019-04-22T05:41:02.692Z,5.40
2019-04-22T05:42:10.378Z,5.20
2019-04-22T05:43:16.253Z,5.92
2019-04-22T05:44:26.216Z,5.37
2019-04-22T05:45:40.607Z,5.37
2019-04-22T05:46:35.856Z,5.95
2019-04-22T05:47:50.895Z,5.42
2019-04-22T05:48:53.848Z,6.30
2019-04-22T05:49:59.115Z,5.42
2019-04-22T05:51:02.408Z,5.53
2019-04-22T05:52:09.700Z,5.28
2019-04-22T05:53:13.755Z,4.90
2019-04-22T05:54:27.855Z,4.67
2019-04-22T05:55:38.618Z,5.12
2019-04-22T05:56:47.264Z,4.75
2019-04-22T05:57:44.265Z,5.30
2019-04-22T05:58:58.235Z,5.22
2019-04-22T06:00:01.245Z,4.25
2019-04-22T06:02:24.031Z,4.37
2019-04-22T06:03:23.497Z,5.22
2019-04-22T06:04:29.510Z,4.50
2019-04-22T06:05:35.970Z,4.85
2019-04-22T06:06:45.286Z,5.10
2019-04-22T06:07:59.175Z,4.97
2019-04-22T06:08:57.842Z,5.30
2019-04-22T06:10:11.615Z,4.03
2019-04-22T06:11:22.743Z,4.50
2019-04-22T06:12:19.087Z,4.60
2019-04-22T06:13:28.057Z,4.95
2019-04-22T06:14:45.271Z,5.15
2019-04-22T06:15:44.106Z,4.90
2019-04-22T06:16:57.142Z,4.90
2019-04-22T06:18:09.601Z,4.70
2019-04-22T06:19:15.144Z,5.00
2019-04-22T06:20:15.938Z,5.42
2019-04-22T06:21:26.785Z,5.55
2019-04-22T06:22:37.179Z,5.58
2019-04-22T06:23:44.424Z,5.60
2019-04-22T06:24:42.325Z,6.85
2019-04-22T06:26:07.908Z,6.92
2019-04-22T06:28:15.590Z,5.45
2019-04-22T06:29:16.441Z,5.35
2019-04-22T06:30:21.715Z,5.85
2019-04-22T06:31:37.169Z,5.30
2019-04-22T06:33:44.322Z,5.47
2019-04-22T06:34:54.672Z,4.58
2019-04-22T06:35:56.294Z,5.00
2019-04-22T06:38:24.350Z,4.87
2019-04-22T06:39:14.562Z,5.30
2019-04-22T06:40:24.692Z,5.17
2019-04-22T06:41:31.635Z,5.58
2019-04-22T06:42:36.633Z,4.90
2019-04-22T06:43:41.914Z,5.17
2019-04-22T06:44:54.934Z,4.60
2019-04-22T06:45:43.542Z,5.08
2019-04-22T06:47:03.439Z,5.12
2019-04-22T06:49:19.405Z,5.10
2019-04-22T06:50:24.204Z,5.20
2019-04-22T06:52:36.599Z,5.40
2019-04-22T06:53:43.993Z,5.47
2019-04-22T06:54:50.420Z,5.37
2019-04-22T06:55:51.316Z,4.92
2019-04-22T06:56:59.412Z,5.00
2019-04-22T06:58:10.706Z,4.90
2019-04-22T06:59:14.325Z,5.55
2019-04-22T07:00:24.753Z,5.40
2019-04-22T07:01:31.832Z,6.03
2019-04-22T07:02:45.238Z,5.50
2019-04-22T07:04:55.204Z,5.28
2019-04-22T07:05:59.649Z,5.90
2019-04-22T07:08:34.338Z,4.85
2019-04-22T07:09:38.291Z,5.08
2019-04-22T07:11:30.283Z,4.58
2019-04-22T07:12:34.792Z,4.60
2019-04-22T07:14:01.570Z,4.47
2019-04-22T07:14:50.519Z,4.75
2019-04-22T07:15:57.462Z,4.95
2019-04-22T07:17:04.053Z,5.20
2019-04-22T07:18:18.432Z,4.85
2019-04-22T07:19:21.971Z,4.83
2019-04-22T07:20:23.790Z,3.92
2019-04-22T07:21:33.492Z,5.37
2019-04-22T07:22:39.808Z,4.60
2019-04-22T07:23:54.047Z,4.50
2019-04-22T07:24:53.908Z,4.33
2019-04-22T07:25:58.175Z,5.33
2019-04-22T07:27:08.615Z,5.05
2019-04-22T07:28:11.131Z,5.30
2019-04-22T07:29:23.638Z,4.95
2019-04-22T07:30:26.493Z,4.83
2019-04-22T07:31:37.247Z,5.17
2019-04-22T07:33:05.007Z,4.67
2019-04-22T07:34:12.876Z,4.67
2019-04-22T07:36:25.703Z,5.30
2019-04-22T07:37:20.031Z,4.70
2019-04-22T07:38:22.307Z,4.42
2019-04-22T07:39:23.162Z,4.10
2019-04-22T07:40:34.384Z,4.30
2019-04-22T07:41:41.113Z,4.72
2019-04-22T07:42:41.808Z,3.95
2019-04-22T07:44:55.134Z,4.05
2019-04-22T07:46:03.511Z,4.40
2019-04-22T07:47:20.549Z,4.37
2019-04-22T07:48:26.764Z,3.87
2019-04-22T07:49:26.802Z,4.33
2019-04-22T07:50:47.540Z,4.10
2019-04-22T07:51:38.691Z,3.87
2019-04-22T07:52:38.686Z,4.58
2019-04-22T07:53:49.036Z,4.47
2019-04-22T07:54:58.524Z,3.95
2019-04-22T07:56:08.341Z,3.90
2019-04-22T07:57:14.796Z,4.00
2019-04-22T07:58:18.681Z,3.85
2019-04-22T07:59:26.834Z,4.22
2019-04-22T08:00:36.857Z,3.65
2019-04-22T08:01:39.917Z,3.83
2019-04-22T08:03:59.861Z,4.10
2019-04-22T08:05:05.447Z,3.80
2019-04-22T08:07:30.357Z,4.00
2019-04-22T08:12:51.909Z,3.90
2019-04-22T08:13:51.276Z,3.50
2019-04-22T08:15:05.722Z,3.50
2019-04-22T08:16:10.618Z,3.40
2019-04-22T08:17:43.085Z,3.62
2019-04-22T08:18:27.668Z,4.08
2019-04-22T08:19:35.695Z,4.17
2019-04-22T08:20:44.083Z,3.37
2019-04-22T08:21:49.353Z,3.83
2019-04-22T08:23:02.242Z,3.45
2019-04-22T08:24:01.206Z,3.30
2019-04-22T08:25:06.742Z,3.37
2019-04-22T08:26:13.011Z,3.52
2019-04-22T08:27:15.373Z,3.35
2019-04-22T08:28:32.083Z,3.55
2019-04-22T08:29:46.069Z,4.12
2019-04-22T08:31:48.798Z,4.08
2019-04-22T08:32:53.123Z,3.27
2019-04-22T08:34:01.920Z,3.72
2019-04-22T08:35:18.501Z,3.90
2019-04-22T08:37:47.367Z,3.12
2019-04-22T08:38:37.735Z,4.00
2019-04-22T08:39:39.096Z,3.50
2019-04-22T08:40:47.310Z,4.03
2019-04-22T08:41:43.412Z,3.92
2019-04-22T08:42:58.672Z,3.60
2019-04-22T08:44:07.659Z,3.72
2019-04-22T08:46:28.500Z,4.20
2019-04-22T08:47:31.764Z,3.90
2019-04-22T08:48:36.704Z,3.85
2019-04-22T08:49:50.649Z,3.67
2019-04-22T08:50:53.227Z,3.12
2019-04-22T08:51:58.799Z,3.85
2019-04-22T08:53:06.466Z,3.85
2019-04-22T08:55:17.428Z,4.25
2019-04-22T08:56:29.840Z,3.75
2019-04-22T08:57:34.759Z,3.65
2019-04-22T08:59:43.259Z,3.90
2019-04-22T09:01:11.604Z,3.40
2019-04-22T09:02:01.038Z,3.70
2019-04-22T09:03:04.749Z,3.98
2019-04-22T09:04:10.076Z,3.98
2019-04-22T09:05:37.394Z,4.15
2019-04-22T09:07:31.776Z,3.62
2019-04-22T09:08:42.775Z,4.00
2019-04-22T09:09:55.308Z,4.22
2019-04-22T09:10:59.989Z,3.20
2019-04-22T09:12:00.212Z,3.40
2019-04-22T09:13:22.509Z,4.10
2019-04-22T09:14:22.876Z,3.90
2019-04-22T09:15:26.365Z,3.70
2019-04-22T09:16:32.733Z,3.75
2019-04-22T09:17:34.600Z,3.67
2019-04-22T09:18:45.551Z,3.20
2019-04-22T09:19:47.734Z,3.98
2019-04-22T09:20:57.267Z,3.33
2019-04-22T09:22:08.239Z,3.30
2019-04-22T09:23:07.590Z,4.15
2019-04-22T09:24:16.499Z,3.80
2019-04-22T09:25:27.418Z,3.60
2019-04-22T09:26:30.774Z,3.92
2019-04-22T09:27:40.040Z,4.05
2019-04-22T09:28:44.067Z,3.77
2019-04-22T09:29:50.074Z,3.60
2019-04-22T09:31:01.335Z,3.75
2019-04-22T09:33:14.495Z,4.08
2019-04-22T09:34:24.778Z,4.10
2019-04-22T09:35:31.722Z,3.50
2019-04-22T09:36:34.202Z,3.50
2019-04-22T09:38:48.725Z,3.50
2019-04-22T09:39:59.663Z,3.40
2019-04-22T09:41:02.061Z,3.85
2019-04-22T09:42:24.674Z,3.83
2019-04-22T09:43:17.370Z,3.60
2019-04-22T09:44:26.256Z,3.80
2019-04-22T09:45:27.535Z,4.20
2019-04-22T09:46:41.211Z,4.08
2019-04-22T09:47:53.731Z,4.20
2019-04-22T09:48:50.372Z,3.98
2019-04-22T09:51:00.453Z,3.60
2019-04-22T09:52:10.288Z,3.60
2019-04-22T09:53:14.851Z,3.45
2019-04-22T09:54:31.016Z,3.70
2019-04-22T09:55:29.383Z,3.87
2019-04-22T09:56:44.483Z,3.50
2019-04-22T09:57:46.988Z,3.55
2019-04-22T09:58:59.343Z,4.05
2019-04-22T10:00:02.297Z,3.45
2019-04-22T10:01:18.732Z,3.70
2019-04-22T10:03:27.096Z,3.47
2019-04-22T10:04:33.087Z,4.03
2019-04-22T10:05:41.881Z,3.22
2019-04-22T10:06:40.593Z,3.52
2019-04-22T10:07:52.482Z,3.70
2019-04-22T10:09:25.922Z,3.90
2019-04-22T10:10:12.389Z,4.33
2019-04-22T10:11:21.447Z,3.45
2019-04-22T10:12:30.484Z,3.67
2019-04-22T10:13:34.720Z,3.80
2019-04-22T10:14:39.675Z,3.40
2019-04-22T10:15:46.847Z,4.12
2019-04-22T10:16:51.845Z,3.45
2019-04-22T10:17:56.523Z,3.55
2019-04-22T10:19:04.274Z,3.33
2019-04-22T10:20:10.218Z,3.67
2019-04-22T10:21:24.310Z,2.90
2019-04-22T10:23:34.507Z,3.70
2019-04-22T10:24:41.697Z,3.72
2019-04-22T10:25:45.987Z,3.30
2019-04-22T10:26:51.628Z,3.90
2019-04-22T10:28:01.840Z,3.27
2019-04-22T10:30:17.121Z,3.40
2019-04-22T10:31:24.926Z,3.02
2019-04-22T10:32:27.850Z,3.90
2019-04-22T10:33:33.584Z,3.62
2019-04-22T10:34:28.837Z,3.50
2019-04-22T10:35:26.769Z,4.12
2019-04-22T10:36:31.163Z,3.55
2019-04-22T10:37:36.670Z,3.80
2019-04-22T10:38:42.235Z,3.83
2019-04-22T10:39:56.226Z,3.90
2019-04-22T10:40:56.535Z,3.33
2019-04-22T10:42:02.862Z,3.27
2019-04-22T10:43:09.676Z,3.50
2019-04-22T10:44:15.282Z,3.45
2019-04-22T10:45:21.950Z,3.08
2019-04-22T10:46:28.349Z,3.42
2019-04-22T10:47:34.176Z,3.70
2019-04-22T10:48:40.127Z,3.30
2019-04-22T10:49:46.585Z,3.20
2019-04-22T10:50:52.675Z,3.92
2019-04-22T10:52:00.705Z,3.40
2019-04-22T10:53:05.887Z,3.40
2019-04-22T10:54:11.496Z,3.70
2019-04-22T10:55:17.271Z,3.87
2019-04-22T10:56:23.541Z,3.33
2019-04-22T10:57:29.767Z,3.47
2019-04-22T10:58:35.066Z,3.62
2019-04-22T10:59:40.794Z,3.50
2019-04-22T11:00:47.364Z,3.27
2019-04-22T11:01:52.725Z,3.40
2019-04-22T11:03:00.180Z,3.90
2019-04-22T11:04:05.344Z,3.70
2019-04-22T11:05:12.290Z,3.80
2019-04-22T11:06:19.176Z,3.35
2019-04-22T11:07:36.178Z,3.75
2019-04-22T11:08:40.642Z,3.58
2019-04-22T11:09:50.761Z,3.80
2019-04-22T11:11:00.392Z,3.83
2019-04-22T11:12:01.701Z,4.17
2019-04-22T11:13:00.907Z,3.65
2019-04-22T11:14:07.472Z,3.55
2019-04-22T11:15:13.797Z,4.05
2019-04-22T11:16:19.448Z,3.10
2019-04-22T11:17:25.998Z,3.62
2019-04-22T11:18:31.695Z,3.87
2019-04-22T11:19:37.866Z,3.90
2019-04-22T11:20:43.996Z,3.50
2019-04-22T11:21:59.996Z,3.60
2019-04-22T11:22:58.255Z,3.50
2019-04-22T11:24:03.021Z,3.65
2019-04-22T11:25:09.696Z,4.15
2019-04-22T11:26:15.505Z,3.85
2019-04-22T11:27:21.185Z,3.12
2019-04-22T11:28:27.772Z,4.10
2019-04-22T11:29:32.945Z,3.45
2019-04-22T11:30:38.778Z,3.50
2019-04-22T11:31:44.466Z,3.20
2019-04-22T11:32:50.698Z,3.45
2019-04-22T11:33:56.669Z,4.05
2019-04-22T11:35:01.813Z,3.72
2019-04-22T11:36:08.027Z,3.92
2019-04-22T11:37:14.652Z,2.90
2019-04-22T11:38:20.078Z,3.50
2019-04-22T11:39:26.009Z,4.05
2019-04-22T11:40:37.950Z,3.35
2019-04-22T11:41:40.191Z,3.65
2019-04-22T11:42:46.066Z,3.50
2019-04-22T11:43:51.407Z,3.95
2019-04-22T11:44:57.136Z,3.83
2019-04-22T11:46:03.235Z,3.50
2019-04-22T11:47:09.644Z,3.27
2019-04-22T11:48:15.486Z,3.47
2019-04-22T11:49:21.871Z,3.10
2019-04-22T11:50:28.071Z,3.10
2019-04-22T11:51:33.825Z,3.90
2019-04-22T11:52:40.507Z,3.25
2019-04-22T11:53:47.050Z,3.05
2019-04-22T11:54:52.921Z,3.60
2019-04-22T11:55:58.336Z,3.65
2019-04-22T11:57:03.520Z,3.30
2019-04-22T11:58:09.000Z,3.30
2019-04-22T11:59:15.062Z,3.85
2019-04-22T12:00:28.682Z,3.02
2019-04-22T12:01:34.960Z,3.37
2019-04-22T12:02:40.933Z,3.37
2019-04-22T12:03:46.390Z,3.90
2019-04-22T12:04:51.957Z,3.25
2019-04-22T12:05:59.715Z,3.37
2019-04-22T12:07:05.914Z,3.60
2019-04-22T12:08:11.353Z,2.72
2019-04-22T12:09:17.579Z,3.17
2019-04-22T12:10:33.213Z,3.60
2019-04-22T12:11:32.342Z,3.85
2019-04-22T12:12:37.781Z,3.60
2019-04-22T12:13:44.070Z,3.55
2019-04-22T12:14:50.083Z,3.50
2019-04-22T12:15:55.551Z,3.17
2019-04-22T12:17:01.647Z,3.62
2019-04-22T12:18:09.228Z,3.25
2019-04-22T12:19:15.684Z,3.30
2019-04-22T12:20:21.728Z,3.60
2019-04-22T12:21:29.018Z,3.47
2019-04-22T12:22:35.663Z,3.37
2019-04-22T12:23:41.298Z,3.15
2019-04-22T12:24:48.146Z,3.40
2019-04-22T12:26:00.920Z,3.20
2019-04-22T12:27:00.359Z,4.08
2019-04-22T12:28:05.576Z,3.80
2019-04-22T12:29:11.073Z,2.77
2019-04-22T12:30:17.362Z,3.50
2019-04-22T12:31:23.801Z,3.10
2019-04-22T12:32:29.941Z,3.02
2019-04-22T12:33:35.218Z,3.22
2019-04-22T12:34:41.643Z,2.87
2019-04-22T12:35:48.424Z,3.12
2019-04-22T12:36:54.462Z,3.40
2019-04-22T12:38:04.864Z,3.20
2019-04-22T12:39:09.696Z,3.40
2019-04-22T12:40:29.409Z,3.40
2019-04-22T12:41:23.709Z,2.92
2019-04-22T12:42:29.280Z,3.00
2019-04-22T12:43:35.451Z,2.80
2019-04-22T12:44:42.485Z,3.08
2019-04-22T12:45:47.954Z,3.05
2019-04-22T12:46:54.395Z,3.10
2019-04-22T12:48:00.092Z,2.45
2019-04-22T12:49:05.389Z,2.85
2019-04-22T12:50:19.764Z,3.90
2019-04-22T12:51:18.889Z,3.12
2019-04-22T12:52:32.355Z,2.80
2019-04-22T12:53:31.950Z,2.80
2019-04-22T12:54:37.356Z,2.80
2019-04-22T12:55:43.876Z,2.92
2019-04-22T12:56:49.143Z,2.90
2019-04-22T12:57:57.430Z,2.55
2019-04-22T12:59:03.665Z,2.60
2019-04-22T13:00:11.585Z,2.92
2019-04-22T13:01:17.031Z,3.10
2019-04-22T13:02:23.024Z,2.67
2019-04-22T13:03:28.614Z,3.12
2019-04-22T13:04:34.303Z,2.92
2019-04-22T13:05:40.887Z,2.62
2019-04-22T13:06:46.165Z,2.87
2019-04-22T13:07:51.644Z,2.98
2019-04-22T13:08:56.835Z,2.92
2019-04-22T13:10:01.897Z,3.10
2019-04-22T13:11:12.154Z,2.60
2019-04-22T13:12:15.195Z,2.60
2019-04-22T13:13:22.931Z,2.50
2019-04-22T13:14:28.116Z,2.52
2019-04-22T13:15:34.984Z,2.50
2019-04-22T13:16:40.842Z,2.75
2019-04-22T13:17:59.472Z,3.10
2019-04-22T13:18:59.410Z,2.90
2019-04-22T13:20:00.734Z,2.35
2019-04-22T13:21:06.533Z,2.83
2019-04-22T13:22:12.556Z,2.70
2019-04-22T13:23:18.057Z,3.00
2019-04-22T13:24:25.772Z,2.70
2019-04-22T13:25:32.423Z,2.80
2019-04-22T13:26:38.123Z,2.87
2019-04-22T13:27:44.797Z,2.62
2019-04-22T13:28:51.415Z,2.70
2019-04-22T13:29:57.468Z,2.87
2019-04-22T13:31:03.771Z,3.10
2019-04-22T13:32:09.022Z,3.33
2019-04-22T13:33:14.849Z,2.80
2019-04-22T13:34:29.513Z,2.65
2019-04-22T13:35:27.909Z,2.77
2019-04-22T13:36:34.436Z,2.80
2019-04-22T13:37:41.083Z,2.67
2019-04-22T13:38:46.810Z,2.52
2019-04-22T13:39:52.889Z,2.72
2019-04-22T13:41:12.577Z,2.40
2019-04-22T13:42:12.011Z,2.50
2019-04-22T13:43:13.273Z,2.60
2019-04-22T13:44:18.951Z,2.10
2019-04-22T13:45:25.573Z,2.50
2019-04-22T13:46:32.164Z,2.30
2019-04-22T13:47:59.646Z,2.45
2019-04-22T13:49:11.290Z,2.50
2019-04-22T13:50:28.333Z,2.58
2019-04-22T13:53:44.931Z,2.50
2019-04-22T13:54:48.951Z,2.20
2019-04-22T13:55:54.731Z,2.50
2019-04-22T13:57:03.380Z,2.87
2019-04-22T13:57:52.350Z,2.77
2019-04-22T13:58:58.706Z,2.77
2019-04-22T13:59:57.595Z,2.50
2019-04-22T14:01:02.637Z,2.67
2019-04-22T14:02:30.675Z,2.50
2019-04-22T14:03:54.625Z,2.92
2019-04-22T14:05:00.945Z,2.37
2019-04-22T14:06:06.855Z,2.70
2019-04-22T14:07:12.650Z,2.65
2019-04-22T14:08:19.974Z,2.55
2019-04-22T14:09:26.437Z,2.67
2019-04-22T14:10:32.119Z,2.50
2019-04-22T14:11:48.833Z,3.35
2019-04-22T14:12:44.624Z,2.65
2019-04-22T14:13:50.286Z,2.40
2019-04-22T14:14:56.351Z,2.52
2019-04-22T14:16:02.232Z,2.60
2019-04-22T14:17:07.329Z,2.75
2019-04-22T14:18:12.859Z,2.58
2019-04-22T14:19:18.383Z,2.60
2019-04-22T14:20:27.747Z,2.77
2019-04-22T14:21:32.654Z,2.50
2019-04-22T14:22:38.845Z,2.80
2019-04-22T14:23:44.687Z,2.65
2019-04-22T14:24:49.898Z,2.47
2019-04-22T14:25:54.986Z,2.83
2019-04-22T14:27:17.506Z,2.65
2019-04-22T14:28:11.834Z,2.55
2019-04-22T14:29:13.797Z,2.45
2019-04-22T14:30:19.204Z,2.50
2019-04-22T14:31:24.376Z,2.45
2019-04-22T14:32:31.796Z,2.45
2019-04-22T14:33:36.364Z,2.50
2019-04-22T14:34:44.940Z,2.52
2019-04-22T14:35:50.132Z,2.50
2019-04-22T14:36:55.333Z,2.67
2019-04-22T14:38:01.407Z,2.67
2019-04-22T14:39:08.404Z,2.60
2019-04-22T14:40:15.994Z,2.50
2019-04-22T14:41:43.528Z,2.98
2019-04-22T14:42:52.160Z,2.65
2019-04-22T14:44:24.523Z,2.75
2019-04-22T14:45:18.927Z,2.70
2019-04-22T14:46:19.896Z,2.70
2019-04-22T14:47:19.958Z,2.72
2019-04-22T14:48:31.620Z,2.77
2019-04-22T14:49:40.243Z,2.55
2019-04-22T14:50:40.520Z,2.17
2019-04-22T14:51:47.049Z,3.05
2019-04-22T14:52:50.757Z,2.77
2019-04-22T14:53:56.589Z,2.70
2019-04-22T14:54:54.086Z,2.42
2019-04-22T14:55:54.737Z,2.20
2019-04-22T14:57:01.122Z,2.58
2019-04-22T14:58:06.816Z,2.80
2019-04-22T14:59:13.372Z,2.20
2019-04-22T15:00:19.817Z,2.37
2019-04-22T15:01:24.931Z,2.55
2019-04-22T15:02:30.025Z,2.75
2019-04-22T15:03:38.143Z,2.15
2019-04-22T15:04:43.006Z,2.33
2019-04-22T15:05:48.281Z,2.85
2019-04-22T15:06:54.735Z,2.60
2019-04-22T15:08:01.201Z,2.45
2019-04-22T15:09:10.110Z,2.00
2019-04-22T15:10:18.074Z,2.40
2019-04-22T15:11:23.413Z,2.58
2019-04-22T15:12:36.507Z,2.30
2019-04-22T15:13:39.075Z,2.50
2019-04-22T15:14:45.701Z,1.85
2019-04-22T15:16:25.902Z,2.60
2019-04-22T15:17:38.905Z,2.27
2019-04-22T15:18:52.025Z,2.40
2019-04-22T15:20:19.660Z,2.15
2019-04-22T15:21:27.043Z,2.47
2019-04-22T15:22:32.724Z,2.25
2019-04-22T15:23:38.482Z,2.62
2019-04-22T15:24:45.050Z,2.47
2019-04-22T15:25:50.738Z,2.12
2019-04-22T15:26:58.330Z,1.90
2019-04-22T15:28:03.748Z,2.27
2019-04-22T15:29:09.868Z,2.42
2019-04-22T15:30:17.184Z,2.10
2019-04-22T15:31:23.591Z,2.17
2019-04-22T15:32:29.559Z,2.05
2019-04-22T15:33:35.246Z,2.50
2019-04-22T15:34:41.614Z,2.00
2019-04-22T15:35:47.228Z,2.45
2019-04-22T15:36:53.768Z,2.60
2019-04-22T15:37:59.319Z,2.00
2019-04-22T15:39:07.163Z,2.90
2019-04-22T15:40:14.368Z,2.10
2019-04-22T15:41:20.732Z,2.20
2019-04-22T15:42:30.446Z,2.15
2019-04-22T15:43:35.168Z,2.30
2019-04-22T15:44:39.908Z,2.20
2019-04-22T15:45:46.443Z,2.55
2019-04-22T15:46:53.062Z,1.92
2019-04-22T15:47:59.806Z,2.40
2019-04-22T15:49:06.370Z,2.17
2019-04-22T15:50:12.282Z,2.00
2019-04-22T15:51:18.556Z,2.20
2019-04-22T15:52:37.594Z,2.27
2019-04-22T15:53:31.648Z,2.83
2019-04-22T15:54:37.653Z,2.50
2019-04-22T15:55:44.893Z,2.27
2019-04-22T15:56:50.790Z,2.08
2019-04-22T15:57:57.469Z,2.30
2019-04-22T15:59:09.851Z,2.30
2019-04-22T16:00:21.358Z,1.95
2019-04-22T16:01:25.783Z,1.70
2019-04-22T16:02:23.875Z,1.95
2019-04-22T16:03:29.167Z,2.35
2019-04-22T16:04:34.737Z,1.98
2019-04-22T16:05:39.982Z,2.10
2019-04-22T16:06:45.135Z,2.60
2019-04-22T16:07:50.699Z,2.25
2019-04-22T16:08:56.066Z,2.00
2019-04-22T16:10:01.879Z,2.20
2019-04-22T16:11:07.080Z,2.25
2019-04-22T16:12:19.982Z,2.20
2019-04-22T16:13:24.429Z,1.90
2019-04-22T16:14:32.817Z,2.20
2019-04-22T16:15:32.565Z,2.08
2019-04-22T16:16:38.840Z,1.90
2019-04-22T16:17:44.629Z,2.20
2019-04-22T16:18:50.684Z,1.95
2019-04-22T16:19:57.077Z,2.05
2019-04-22T16:21:02.919Z,2.00
2019-04-22T16:22:13.453Z,2.00
2019-04-22T16:23:36.197Z,2.20
2019-04-22T16:25:04.769Z,2.05
2019-04-22T16:26:24.411Z,1.70
2019-04-22T16:27:30.241Z,1.80
2019-04-22T16:28:35.508Z,2.00
2019-04-22T16:29:41.226Z,2.30
2019-04-22T16:30:46.557Z,2.10
2019-04-22T16:31:51.667Z,1.85
2019-04-22T16:33:01.493Z,1.80
2019-04-22T16:34:08.056Z,1.87
2019-04-22T16:35:14.578Z,1.80
2019-04-22T16:36:20.769Z,1.70
2019-04-22T16:37:25.880Z,2.08
2019-04-22T16:38:31.041Z,1.98
2019-04-22T16:39:36.559Z,1.90